createdAt,value
2018-03-21T00:01:08.991Z,13.15
2018-03-21T00:03:36.543Z,15.75
2018-03-21T00:06:04.063Z,13.52
2018-03-21T00:08:31.588Z,14.70
2018-03-21T00:10:59.155Z,12.20
2018-03-21T00:13:26.689Z,12.27
2018-03-21T00:15:54.237Z,14.45
2018-03-21T00:18:21.759Z,14.60
2018-03-21T00:20:49.303Z,14.98
2018-03-21T00:23:16.852Z,14.18
2018-03-21T00:25:44.389Z,13.27
2018-03-21T00:28:11.931Z,13.25
2018-03-21T00:30:39.486Z,13.30
2018-03-21T00:33:07.006Z,14.30
2018-03-21T00:35:34.531Z,15.77
2018-03-21T00:38:02.075Z,14.55
2018-03-21T00:40:29.597Z,13.48
2018-03-21T00:42:57.914Z,13.65
2018-03-21T00:45:25.436Z,13.38
2018-03-21T00:47:53.755Z,14.00
2018-03-21T00:50:21.265Z,13.70
2018-03-21T00:52:48.817Z,14.73
2018-03-21T00:55:16.351Z,12.45
2018-03-21T00:57:43.878Z,16.17
2018-03-21T01:00:11.441Z,13.40
2018-03-21T01:02:38.971Z,14.30
2018-03-21T01:05:07.277Z,13.65
2018-03-21T01:07:34.791Z,14.10
2018-03-21T01:10:02.327Z,14.93
2018-03-21T01:12:29.875Z,14.52
2018-03-21T01:14:57.426Z,13.75
2018-03-21T01:17:24.949Z,13.95
2018-03-21T01:19:53.275Z,13.57
2018-03-21T01:22:20.817Z,14.73
2018-03-21T01:24:48.350Z,13.30
2018-03-21T01:27:15.895Z,14.60
2018-03-21T01:29:44.185Z,15.02
2018-03-21T01:32:11.736Z,12.57
2018-03-21T01:34:40.037Z,14.63
2018-03-21T01:37:07.586Z,14.15
2018-03-21T01:39:35.117Z,14.90
2018-03-21T01:42:02.673Z,14.50
2018-03-21T01:44:30.206Z,13.70
2018-03-21T01:46:57.733Z,16.70
2018-03-21T01:49:25.285Z,15.45
2018-03-21T01:51:52.819Z,13.25
2018-03-21T01:54:21.133Z,17.35
2018-03-21T01:56:48.660Z,15.10
2018-03-21T01:59:16.983Z,14.52
2018-03-21T02:01:44.505Z,17.27
2018-03-21T02:04:12.810Z,15.52
2018-03-21T02:06:40.322Z,14.38
2018-03-21T02:09:08.638Z,14.70
2018-03-21T02:11:36.158Z,14.20
2018-03-21T02:14:04.449Z,14.35
2018-03-21T02:16:32.766Z,14.63
2018-03-21T02:19:00.287Z,15.00
2018-03-21T02:21:28.592Z,14.85
2018-03-21T02:23:56.150Z,15.18
2018-03-21T02:26:23.702Z,14.45
2018-03-21T02:28:51.228Z,15.15
2018-03-21T02:31:19.551Z,14.93
2018-03-21T02:33:47.080Z,15.45
2018-03-21T02:36:14.621Z,14.85
2018-03-21T02:38:42.943Z,13.68
2018-03-21T02:41:10.465Z,13.00
2018-03-21T02:43:38.779Z,13.32
2018-03-21T02:46:06.321Z,14.60
2018-03-21T02:48:33.875Z,14.13
2018-03-21T02:51:01.399Z,14.35
2018-03-21T02:53:28.953Z,13.15
2018-03-21T02:55:56.475Z,14.10
2018-03-21T02:58:24.034Z,14.73
2018-03-21T03:00:51.569Z,14.13
2018-03-21T03:03:19.104Z,15.48
2018-03-21T03:05:47.419Z,13.48
2018-03-21T03:08:14.947Z,14.15
2018-03-21T03:10:43.259Z,13.30
2018-03-21T03:13:10.782Z,14.85
2018-03-21T03:15:39.096Z,13.50
2018-03-21T03:18:06.608Z,14.63
2018-03-21T03:20:34.169Z,14.35
2018-03-21T03:23:01.695Z,13.75
2018-03-21T03:25:29.214Z,13.50
2018-03-21T03:27:56.751Z,13.57
2018-03-21T03:30:25.044Z,14.45
2018-03-21T03:32:52.607Z,13.18
2018-03-21T03:35:20.143Z,14.07
2018-03-21T03:37:48.451Z,14.40
2018-03-21T03:40:15.973Z,15.07
2018-03-21T03:42:43.536Z,14.30
2018-03-21T03:45:11.055Z,14.73
2018-03-21T03:47:38.605Z,15.02
2018-03-21T03:50:06.151Z,14.18
2018-03-21T03:52:33.675Z,14.52
2018-03-21T03:55:02.005Z,15.35
2018-03-21T03:57:29.533Z,15.13
2018-03-21T03:59:57.074Z,15.43
2018-03-21T04:02:25.393Z,14.95
2018-03-21T04:04:52.940Z,17.25
2018-03-21T04:07:20.467Z,17.58
2018-03-21T04:09:48.791Z,17.33
2018-03-21T04:12:16.310Z,15.82
2018-03-21T04:14:44.607Z,16.00
2018-03-21T04:17:12.146Z,15.35
2018-03-21T04:19:40.434Z,15.50
2018-03-21T04:22:07.992Z,14.55
2018-03-21T04:24:35.522Z,15.90
2018-03-21T04:27:03.075Z,16.60
2018-03-21T04:29:30.612Z,17.00
2018-03-21T04:31:58.158Z,14.80
2018-03-21T04:34:25.693Z,14.77
2018-03-21T04:36:53.222Z,16.85
2018-03-21T04:39:20.788Z,15.52
2018-03-21T04:41:49.080Z,15.20
2018-03-21T04:44:17.409Z,13.45
2018-03-21T04:46:44.945Z,16.08
2018-03-21T04:49:12.478Z,15.43
2018-03-21T04:51:40.024Z,16.45
2018-03-21T04:54:08.323Z,15.13
2018-03-21T04:56:35.859Z,14.50
2018-03-21T04:59:04.181Z,15.77
2018-03-21T05:01:31.708Z,16.55
2018-03-21T05:04:00.001Z,16.87
2018-03-21T05:06:27.554Z,16.75
2018-03-21T05:08:55.085Z,17.20
2018-03-21T05:11:23.394Z,15.05
2018-03-21T05:13:50.913Z,17.00
2018-03-21T05:16:18.495Z,17.83
2018-03-21T05:18:46.790Z,15.93
2018-03-21T05:21:14.336Z,18.35
2018-03-21T05:23:41.876Z,16.98
2018-03-21T05:26:10.189Z,17.05
2018-03-21T05:28:37.746Z,17.00
2018-03-21T05:31:05.281Z,17.83
2018-03-21T05:33:33.602Z,16.50
2018-03-21T05:36:01.115Z,19.27
2018-03-21T05:38:29.422Z,17.42
2018-03-21T05:40:56.941Z,19.40
2018-03-21T05:43:25.272Z,17.67
2018-03-21T05:45:52.838Z,18.20
2018-03-21T05:48:20.412Z,18.08
2018-03-21T05:50:49.567Z,20.25
2018-03-21T05:53:17.109Z,18.25
2018-03-21T05:55:45.431Z,17.73
2018-03-21T05:58:12.958Z,19.30
2018-03-21T06:00:40.485Z,19.90
2018-03-21T06:03:08.981Z,19.83
2018-03-21T06:05:39.043Z,19.23
2018-03-21T06:08:06.654Z,20.70
2018-03-21T06:10:34.964Z,22.27
2018-03-21T06:13:02.484Z,19.85
2018-03-21T06:15:30.035Z,19.70
2018-03-21T06:17:57.578Z,20.60
2018-03-21T06:20:25.110Z,22.55
2018-03-21T06:22:52.895Z,21.00
2018-03-21T06:25:21.229Z,20.73
2018-03-21T06:27:48.762Z,22.45
2018-03-21T06:30:16.301Z,20.75
2018-03-21T06:32:43.867Z,20.30
2018-03-21T06:35:11.405Z,21.45
2018-03-21T06:37:38.968Z,20.98
2018-03-21T06:40:06.509Z,20.48
2018-03-21T06:42:34.027Z,19.55
2018-03-21T06:45:02.334Z,21.10
2018-03-21T06:47:29.863Z,20.35
2018-03-21T06:49:58.197Z,20.50
2018-03-21T06:52:25.736Z,20.77
2018-03-21T06:54:53.299Z,21.15
2018-03-21T06:57:20.843Z,22.35
2018-03-21T06:59:48.517Z,22.15
2018-03-21T07:02:16.054Z,21.40
2018-03-21T07:04:43.604Z,21.58
2018-03-21T07:07:11.914Z,23.87
2018-03-21T07:09:39.448Z,23.00
2018-03-21T07:12:06.983Z,23.30
2018-03-21T07:14:47.140Z,21.65
2018-03-21T07:17:15.448Z,19.67
2018-03-21T07:19:42.978Z,19.85
2018-03-21T07:22:11.300Z,18.25
2018-03-21T07:24:38.836Z,19.75
2018-03-21T07:27:07.180Z,21.48
2018-03-21T07:29:34.710Z,17.45
2018-03-21T07:32:02.240Z,19.73
2018-03-21T07:34:29.800Z,19.27
2018-03-21T07:36:57.318Z,19.40
2018-03-21T07:39:24.886Z,20.60
2018-03-21T07:41:53.191Z,18.00
2018-03-21T07:44:20.753Z,21.35
2018-03-21T07:46:48.291Z,21.10
2018-03-21T07:49:16.593Z,20.42
2018-03-21T07:51:44.117Z,19.92
2018-03-21T07:54:12.418Z,21.30
2018-03-21T07:56:39.994Z,19.58
2018-03-21T07:59:07.556Z,20.70
2018-03-21T08:01:35.107Z,16.48
2018-03-21T08:04:02.647Z,15.10
2018-03-21T08:06:30.208Z,16.20
2018-03-21T08:08:58.518Z,17.08
2018-03-21T08:11:26.062Z,17.62
2018-03-21T08:13:53.596Z,14.75
2018-03-21T08:16:21.927Z,16.60
2018-03-21T08:18:50.233Z,15.65
2018-03-21T08:21:18.530Z,13.88
2018-03-21T08:23:46.840Z,13.85
2018-03-21T08:26:14.381Z,14.57
2018-03-21T08:28:41.932Z,13.38
2018-03-21T08:31:09.468Z,13.90
2018-03-21T08:33:37.008Z,13.88
2018-03-21T08:36:04.528Z,12.23
2018-03-21T08:38:32.074Z,12.95
2018-03-21T08:40:59.600Z,12.13
2018-03-21T08:43:27.155Z,12.25
2018-03-21T08:45:55.479Z,12.82
2018-03-21T08:48:23.019Z,11.98
2018-03-21T08:50:51.323Z,11.55
2018-03-21T08:53:18.860Z,11.23
2018-03-21T08:55:46.404Z,12.75
2018-03-21T08:58:14.701Z,10.85
2018-03-21T09:00:42.255Z,12.02
2018-03-21T09:03:09.825Z,10.70
2018-03-21T09:05:37.387Z,9.90
2018-03-21T09:08:04.914Z,11.80
2018-03-21T09:10:33.237Z,11.38
2018-03-21T09:13:00.826Z,12.05
2018-03-21T09:15:28.313Z,11.43
2018-03-21T09:17:56.631Z,10.52
2018-03-21T09:20:24.150Z,11.18
2018-03-21T09:22:52.449Z,10.13
2018-03-21T09:25:19.979Z,11.18
2018-03-21T09:27:48.296Z,11.07
2018-03-21T09:30:15.823Z,10.60
2018-03-21T09:32:44.113Z,10.02
2018-03-21T09:35:11.660Z,11.10
2018-03-21T09:37:39.933Z,10.60
2018-03-21T09:40:08.244Z,9.95
2018-03-21T09:42:35.784Z,10.48
2018-03-21T09:45:03.326Z,10.68
2018-03-21T09:47:31.618Z,11.48
2018-03-21T09:49:59.915Z,14.10
2018-03-21T09:52:27.442Z,15.77
2018-03-21T09:54:55.788Z,12.13
2018-03-21T09:57:23.307Z,12.80
2018-03-21T09:59:50.838Z,10.85
2018-03-21T10:02:19.172Z,11.15
2018-03-21T10:04:46.706Z,10.18
2018-03-21T10:07:14.241Z,9.95
2018-03-21T10:09:41.788Z,10.30
2018-03-21T10:12:10.121Z,10.20
2018-03-21T10:14:37.711Z,8.80
2018-03-21T10:17:05.204Z,10.25
2018-03-21T10:19:33.557Z,10.43
2018-03-21T10:22:01.886Z,9.25
2018-03-21T10:24:29.440Z,8.70
2018-03-21T10:26:56.983Z,9.23
2018-03-21T10:29:24.549Z,9.88
2018-03-21T10:31:52.096Z,10.00
2018-03-21T10:34:19.637Z,8.25
2018-03-21T10:36:47.953Z,8.27
2018-03-21T10:39:15.487Z,8.40
2018-03-21T10:41:43.015Z,9.07
2018-03-21T10:44:10.588Z,9.82
2018-03-21T10:46:38.887Z,9.75
2018-03-21T10:49:06.428Z,10.30
2018-03-21T10:51:34.745Z,9.98
2018-03-21T10:54:02.265Z,10.00
2018-03-21T10:56:30.579Z,10.32
2018-03-21T10:58:58.108Z,9.63
2018-03-21T11:01:32.024Z,9.52
2018-03-21T11:03:59.560Z,9.38
2018-03-21T11:06:28.005Z,9.48
2018-03-21T11:08:55.514Z,10.00
2018-03-21T11:11:23.835Z,10.07
2018-03-21T11:13:51.359Z,10.15
2018-03-21T11:16:18.900Z,10.07
2018-03-21T11:18:47.200Z,9.13
2018-03-21T11:21:14.741Z,10.30
2018-03-21T11:23:43.044Z,10.05
2018-03-21T11:26:10.568Z,9.10
2018-03-21T11:28:38.887Z,9.80
2018-03-21T11:31:06.420Z,9.40
2018-03-21T11:33:33.962Z,9.80
2018-03-21T11:36:02.256Z,10.15
2018-03-21T11:38:29.783Z,6.80
2018-03-21T11:40:57.324Z,10.77
2018-03-21T11:43:24.843Z,10.82
2018-03-21T11:45:52.378Z,9.75
2018-03-21T11:48:20.680Z,9.52
2018-03-21T11:50:48.218Z,8.50
2018-03-21T11:53:16.503Z,9.00
2018-03-21T11:55:44.088Z,9.25
2018-03-21T11:58:11.599Z,7.95
2018-03-21T12:00:39.165Z,9.63
2018-03-21T12:03:07.472Z,8.82
2018-03-21T12:05:34.999Z,7.62
2018-03-21T12:08:03.316Z,7.62
2018-03-21T12:10:30.851Z,8.73
2018-03-21T12:12:59.152Z,7.00
2018-03-21T12:15:26.672Z,7.45
2018-03-21T12:17:54.980Z,6.90
2018-03-21T12:20:22.513Z,7.20
2018-03-21T12:22:50.837Z,6.55
2018-03-21T12:25:18.375Z,7.40
2018-03-21T12:27:45.897Z,5.93
2018-03-21T12:30:14.208Z,6.40
2018-03-21T12:32:41.712Z,6.20
2018-03-21T12:35:09.240Z,5.95
2018-03-21T12:37:36.753Z,5.82
2018-03-21T12:40:05.059Z,6.22
2018-03-21T12:42:32.571Z,5.25
2018-03-21T12:45:00.108Z,5.22
2018-03-21T12:47:27.643Z,5.50
2018-03-21T12:49:55.305Z,6.15
2018-03-21T12:52:22.778Z,4.60
2018-03-21T12:54:50.315Z,4.78
2018-03-21T12:57:17.845Z,4.97
2018-03-21T12:59:46.122Z,5.05
2018-03-21T13:02:14.422Z,4.93
2018-03-21T13:04:41.950Z,5.40
2018-03-21T13:07:09.477Z,4.32
2018-03-21T13:09:36.996Z,5.65
2018-03-21T13:12:04.556Z,5.60
2018-03-21T13:14:32.097Z,4.80
2018-03-21T13:17:00.385Z,3.90
2018-03-21T13:19:27.924Z,5.43
2018-03-21T13:21:56.210Z,4.30
2018-03-21T13:24:24.527Z,5.20
2018-03-21T13:26:52.045Z,4.70
2018-03-21T13:29:20.345Z,5.20
2018-03-21T13:31:47.877Z,4.30
2018-03-21T13:34:16.171Z,3.85
2018-03-21T13:36:43.690Z,5.12
2018-03-21T13:39:12.020Z,4.45
2018-03-21T13:41:39.529Z,5.05
2018-03-21T13:44:07.047Z,5.07
2018-03-21T13:46:34.591Z,4.55
2018-03-21T13:49:02.111Z,4.20
2018-03-21T13:51:29.647Z,4.95
2018-03-21T13:53:57.173Z,5.18
2018-03-21T13:56:24.718Z,4.75
2018-03-21T13:58:52.252Z,4.70
2018-03-21T14:01:19.794Z,6.07
2018-03-21T14:03:47.307Z,4.80
2018-03-21T14:06:14.826Z,4.32
2018-03-21T14:08:42.371Z,4.18
2018-03-21T14:11:09.887Z,4.65
2018-03-21T14:13:37.416Z,4.65
2018-03-21T14:16:05.695Z,4.85
2018-03-21T14:18:33.986Z,6.07
2018-03-21T14:21:01.515Z,5.72
2018-03-21T14:23:29.058Z,5.00
2018-03-21T14:25:56.571Z,4.00
2018-03-21T14:28:24.127Z,7.70
2018-03-21T14:30:51.647Z,4.43
2018-03-21T14:33:19.176Z,4.25
2018-03-21T14:35:46.717Z,4.07
2018-03-21T14:38:14.260Z,5.10
2018-03-21T14:40:41.805Z,6.45
2018-03-21T14:43:10.094Z,4.80
2018-03-21T14:45:37.646Z,4.95
2018-03-21T14:48:05.932Z,4.90
2018-03-21T14:50:33.488Z,3.70
2018-03-21T14:53:01.025Z,3.20
2018-03-21T14:55:29.340Z,3.92
2018-03-21T14:57:56.909Z,4.00
2018-03-21T15:00:24.441Z,3.90
2018-03-21T15:02:51.974Z,3.33
2018-03-21T15:05:20.276Z,3.70
2018-03-21T15:07:48.687Z,3.92
2018-03-21T15:10:16.200Z,4.70
2018-03-21T15:12:44.502Z,3.72
2018-03-21T15:15:12.030Z,4.68
2018-03-21T15:17:40.344Z,4.60
2018-03-21T15:20:07.866Z,4.97
2018-03-21T15:22:36.160Z,4.20
2018-03-21T15:25:04.519Z,4.75
2018-03-21T15:27:32.834Z,3.60
2018-03-21T15:30:00.820Z,4.28
2018-03-21T15:32:28.513Z,4.03
2018-03-21T15:34:56.054Z,4.43
2018-03-21T15:37:23.912Z,5.00
2018-03-21T15:39:51.483Z,4.30
2018-03-21T15:42:18.997Z,4.85
2018-03-21T15:44:46.599Z,9.05
2018-03-21T15:47:14.730Z,6.20
2018-03-21T15:49:42.312Z,7.07
2018-03-21T15:52:09.987Z,6.93
2018-03-21T15:54:38.310Z,11.88
2018-03-21T15:57:05.928Z,10.95
2018-03-21T15:59:33.494Z,14.35
2018-03-21T16:02:00.998Z,7.18
2018-03-21T16:04:29.301Z,6.00
2018-03-21T16:06:56.851Z,5.20
2018-03-21T16:09:24.380Z,9.13
2018-03-21T16:11:52.660Z,14.70
2018-03-21T16:14:20.972Z,8.23
2018-03-21T16:16:48.496Z,4.80
2018-03-21T16:19:16.798Z,6.03
2018-03-21T16:21:44.311Z,6.55
2018-03-21T16:24:11.854Z,5.00
2018-03-21T16:26:39.383Z,4.68
2018-03-21T16:29:06.932Z,4.97
2018-03-21T16:31:34.459Z,4.68
2018-03-21T16:34:02.738Z,5.87
2018-03-21T16:36:31.586Z,4.82
2018-03-21T16:39:00.078Z,5.82
2018-03-21T16:41:28.344Z,4.82
2018-03-21T16:43:56.297Z,7.20
2018-03-21T16:46:24.331Z,15.60
2018-03-21T16:48:52.949Z,13.73
2018-03-21T16:51:21.847Z,3.90
2018-03-21T16:53:50.265Z,5.53
2018-03-21T16:56:17.883Z,4.50
2018-03-21T16:58:45.815Z,5.87
2018-03-21T17:01:14.603Z,4.32
2018-03-21T17:03:42.245Z,3.75
2018-03-21T17:06:09.750Z,5.55
2018-03-21T17:08:37.284Z,3.35
2018-03-21T17:11:05.584Z,5.25
2018-03-21T17:13:33.118Z,3.53
2018-03-21T17:16:01.409Z,4.07
2018-03-21T17:18:28.926Z,3.60
2018-03-21T17:20:56.453Z,3.20
2018-03-21T17:23:24.044Z,3.17
2018-03-21T17:25:51.945Z,3.53
2018-03-21T17:28:19.810Z,3.72
2018-03-21T17:30:47.357Z,3.40
2018-03-21T17:33:16.045Z,4.03
2018-03-21T17:35:43.612Z,3.75
2018-03-21T17:38:12.242Z,3.60
2018-03-21T17:40:39.792Z,4.15
2018-03-21T17:43:07.690Z,3.45
2018-03-21T17:45:36.615Z,3.12
2018-03-21T17:48:04.306Z,3.20
2018-03-21T17:50:32.945Z,3.75
2018-03-21T17:53:00.497Z,4.30
2018-03-21T17:55:28.015Z,3.45
2018-03-21T17:57:55.559Z,3.40
2018-03-21T18:00:23.092Z,4.18
2018-03-21T18:02:51.397Z,3.72
2018-03-21T18:05:18.913Z,3.62
2018-03-21T18:07:46.441Z,4.50
2018-03-21T18:10:13.987Z,4.35
2018-03-21T18:12:41.528Z,3.80
2018-03-21T18:15:09.080Z,3.00
2018-03-21T18:17:36.611Z,3.78
2018-03-21T18:20:04.146Z,3.70
2018-03-21T18:22:31.675Z,3.05
2018-03-21T18:24:59.254Z,3.12
2018-03-21T18:27:26.781Z,3.30
2018-03-21T18:29:54.331Z,3.30
2018-03-21T18:32:22.632Z,3.65
2018-03-21T18:34:50.174Z,3.20
2018-03-21T18:37:17.719Z,3.87
2018-03-21T18:39:46.006Z,3.22
2018-03-21T18:42:13.555Z,3.50
2018-03-21T18:44:41.847Z,3.25
2018-03-21T18:47:09.373Z,4.07
2018-03-21T18:49:36.903Z,3.95
2018-03-21T18:52:04.452Z,4.07
2018-03-21T18:54:31.993Z,6.15
2018-03-21T18:56:59.563Z,4.05
2018-03-21T18:59:27.126Z,4.70
2018-03-21T19:01:54.655Z,5.43
2018-03-21T19:04:22.976Z,5.03
2018-03-21T19:06:50.503Z,6.60
2018-03-21T19:09:18.055Z,5.55
2018-03-21T19:11:45.575Z,6.35
2018-03-21T19:14:13.100Z,5.20
2018-03-21T19:16:40.620Z,4.55
2018-03-21T19:19:09.032Z,5.32
2018-03-21T19:21:37.318Z,4.72
2018-03-21T19:24:04.845Z,4.72
2018-03-21T19:26:32.412Z,7.80
2018-03-21T19:28:59.951Z,10.30
2018-03-21T19:31:28.264Z,11.10
2018-03-21T19:33:55.818Z,13.27
2018-03-21T19:36:23.365Z,11.52
2018-03-21T19:38:50.891Z,11.88
2018-03-21T19:41:18.439Z,9.07
2018-03-21T19:43:45.975Z,8.05
2018-03-21T19:46:13.546Z,9.23
2018-03-21T19:48:41.094Z,8.93
2018-03-21T19:51:08.630Z,7.00
2018-03-21T19:53:36.171Z,7.20
2018-03-21T19:56:03.726Z,7.07
2018-03-21T19:58:32.027Z,6.90
2018-03-21T20:00:59.564Z,9.63
2018-03-21T20:03:27.111Z,9.20
2018-03-21T20:05:55.410Z,6.80
2018-03-21T20:08:22.967Z,8.18
2018-03-21T20:10:50.495Z,7.25
2018-03-21T20:13:18.029Z,6.55
2018-03-21T20:15:45.566Z,7.40
2018-03-21T20:18:13.100Z,6.87
2018-03-21T20:20:40.645Z,6.37
2018-03-21T20:23:08.934Z,8.35
2018-03-21T20:25:36.499Z,8.80
2018-03-21T20:28:04.043Z,7.50
2018-03-21T20:30:32.379Z,7.40
2018-03-21T20:32:59.896Z,8.00
2018-03-21T20:35:27.417Z,7.82
2018-03-21T20:37:54.963Z,9.93
2018-03-21T20:40:22.482Z,7.55
2018-03-21T20:42:50.027Z,8.55
2018-03-21T20:45:17.558Z,10.65
2018-03-21T20:47:45.883Z,10.07
2018-03-21T20:50:13.402Z,10.77
2018-03-21T20:52:41.724Z,10.18
2018-03-21T20:55:09.246Z,9.05
2018-03-21T20:57:37.573Z,8.80
2018-03-21T21:00:05.118Z,9.30
2018-03-21T21:02:32.659Z,9.32
2018-03-21T21:05:00.210Z,8.15
2018-03-21T21:07:27.744Z,9.02
2018-03-21T21:09:56.059Z,8.30
2018-03-21T21:12:23.596Z,10.02
2018-03-21T21:14:51.903Z,9.20
2018-03-21T21:17:19.427Z,8.43
2018-03-21T21:19:47.747Z,9.25
2018-03-21T21:22:15.281Z,9.95
2018-03-21T21:24:42.818Z,10.02
2018-03-21T21:27:11.141Z,9.35
2018-03-21T21:29:38.680Z,6.53
2018-03-21T21:32:06.225Z,8.48
2018-03-21T21:34:33.775Z,10.00
2018-03-21T21:37:02.084Z,9.70
2018-03-21T21:39:29.631Z,8.60
2018-03-21T21:41:57.180Z,9.77
2018-03-21T21:44:24.708Z,8.05
2018-03-21T21:46:52.265Z,10.60
2018-03-21T21:49:19.824Z,9.88
2018-03-21T21:51:47.350Z,8.77
2018-03-21T21:54:14.882Z,9.27
2018-03-21T21:56:42.429Z,10.98
2018-03-21T21:59:10.837Z,9.55
2018-03-21T22:01:39.088Z,9.82
2018-03-21T22:04:06.643Z,9.45
2018-03-21T22:06:34.923Z,9.80
2018-03-21T22:09:03.229Z,9.82
2018-03-21T22:11:30.746Z,8.30
2018-03-21T22:13:59.033Z,9.75
2018-03-21T22:16:27.333Z,10.20
2018-03-21T22:18:54.848Z,10.23
2018-03-21T22:21:22.391Z,9.95
2018-03-21T22:23:49.923Z,9.60
2018-03-21T22:26:17.484Z,9.50
2018-03-21T22:28:45.033Z,10.00
2018-03-21T22:31:12.566Z,10.80
2018-03-21T22:33:40.864Z,11.43
2018-03-21T22:36:08.388Z,10.40
2018-03-21T22:38:36.695Z,12.13
2018-03-21T22:41:04.213Z,10.13
2018-03-21T22:43:31.788Z,9.98
2018-03-21T22:46:00.080Z,10.35
2018-03-21T22:48:27.631Z,10.02
2018-03-21T22:50:55.934Z,9.88
2018-03-21T22:53:23.483Z,9.20
2018-03-21T22:55:53.679Z,10.13
2018-03-21T22:58:21.998Z,11.12
2018-03-21T23:00:49.521Z,10.55
2018-03-21T23:03:17.821Z,10.85
2018-03-21T23:05:45.370Z,11.20
2018-03-21T23:08:12.960Z,9.88
2018-03-21T23:10:40.523Z,11.18
2018-03-21T23:13:08.068Z,10.82
2018-03-21T23:15:35.623Z,12.37
2018-03-21T23:18:03.160Z,11.75
2018-03-21T23:20:31.490Z,12.07
2018-03-21T23:22:59.026Z,9.82
2018-03-21T23:25:26.557Z,10.82
2018-03-21T23:27:54.883Z,10.65
2018-03-21T23:30:22.423Z,10.80
2018-03-21T23:32:49.980Z,10.32
2018-03-21T23:35:17.507Z,10.50
2018-03-21T23:37:45.823Z,9.88
2018-03-21T23:40:13.369Z,9.63
2018-03-21T23:42:40.935Z,10.25
2018-03-21T23:45:08.478Z,10.25
2018-03-21T23:47:36.045Z,9.40
2018-03-21T23:50:03.567Z,10.18
2018-03-21T23:52:31.872Z,10.18
2018-03-21T23:54:59.440Z,11.05
2018-03-21T23:57:26.972Z,11.02
2018-03-21T23:59:55.303Z,10.05
